sensor_id;sensor_type;location;lat;lon;timestamp;temperature;humidity
52879;DHT22;38747;53.140;6.498;2022-08-18T00:02:10;18.80;99.90
52879;DHT22;38747;53.140;6.498;2022-08-18T00:04:37;18.80;99.90
52879;DHT22;38747;53.140;6.498;2022-08-18T00:07:09;18.80;99.90
52879;DHT22;38747;53.140;6.498;2022-08-18T00:09:37;18.80;99.90
52879;DHT22;38747;53.140;6.498;2022-08-18T00:12:11;18.80;99.90
52879;DHT22;38747;53.140;6.498;2022-08-18T00:14:37;18.80;99.90
52879;DHT22;38747;53.140;6.498;2022-08-18T00:17:03;18.80;99.90
52879;DHT22;38747;53.140;6.498;2022-08-18T00:19:28;18.80;99.90
52879;DHT22;38747;53.140;6.498;2022-08-18T00:21:54;18.70;99.90
52879;DHT22;38747;53.140;6.498;2022-08-18T00:24:20;18.70;99.90
52879;DHT22;38747;53.140;6.498;2022-08-18T00:26:45;18.60;99.90
52879;DHT22;38747;53.140;6.498;2022-08-18T00:29:11;18.60;99.90
52879;DHT22;38747;53.140;6.498;2022-08-18T00:31:36;18.60;99.90
52879;DHT22;38747;53.140;6.498;2022-08-18T00:34:02;18.60;99.90
52879;DHT22;38747;53.140;6.498;2022-08-18T00:36:27;18.60;99.90
52879;DHT22;38747;53.140;6.498;2022-08-18T00:38:53;18.60;99.90
52879;DHT22;38747;53.140;6.498;2022-08-18T00:41:20;18.60;99.90
52879;DHT22;38747;53.140;6.498;2022-08-18T00:43:49;18.60;99.90
52879;DHT22;38747;53.140;6.498;2022-08-18T00:46:19;18.60;99.90
52879;DHT22;38747;53.140;6.498;2022-08-18T00:48:45;18.50;99.90
52879;DHT22;38747;53.140;6.498;2022-08-18T00:51:12;18.50;99.90
52879;DHT22;38747;53.140;6.498;2022-08-18T00:53:43;18.50;99.90
52879;DHT22;38747;53.140;6.498;2022-08-18T00:56:34;18.50;99.90
52879;DHT22;38747;53.140;6.498;2022-08-18T00:59:11;18.50;99.90
52879;DHT22;38747;53.140;6.498;2022-08-18T01:01:40;18.40;99.90
52879;DHT22;38747;53.140;6.498;2022-08-18T01:05:03;18.40;99.90
52879;DHT22;38747;53.140;6.498;2022-08-18T01:07:40;18.50;99.90
52879;DHT22;38747;53.140;6.498;2022-08-18T01:10:18;18.40;99.90
52879;DHT22;38747;53.140;6.498;2022-08-18T01:12:47;18.50;99.90
52879;DHT22;38747;53.140;6.498;2022-08-18T01:15:15;18.40;99.90
52879;DHT22;38747;53.140;6.498;2022-08-18T01:17:42;18.50;99.90
52879;DHT22;38747;53.140;6.498;2022-08-18T01:20:31;18.40;99.90
52879;DHT22;38747;53.140;6.498;2022-08-18T01:23:18;18.40;99.90
52879;DHT22;38747;53.140;6.498;2022-08-18T01:25:45;18.50;99.90
52879;DHT22;38747;53.140;6.498;2022-08-18T01:28:25;18.50;99.90
52879;DHT22;38747;53.140;6.498;2022-08-18T01:30:53;18.50;99.90
52879;DHT22;38747;53.140;6.498;2022-08-18T01:33:28;18.50;99.90
52879;DHT22;38747;53.140;6.498;2022-08-18T01:35:59;18.50;99.90
52879;DHT22;38747;53.140;6.498;2022-08-18T01:38:25;18.50;99.90
52879;DHT22;38747;53.140;6.498;2022-08-18T01:40:51;18.50;99.90
52879;DHT22;38747;53.140;6.498;2022-08-18T01:43:19;18.50;99.90
52879;DHT22;38747;53.140;6.498;2022-08-18T01:45:45;18.50;99.90
52879;DHT22;38747;53.140;6.498;2022-08-18T01:48:12;18.50;99.90
52879;DHT22;38747;53.140;6.498;2022-08-18T01:50:37;18.50;99.90
52879;DHT22;38747;53.140;6.498;2022-08-18T01:53:04;18.50;99.90
52879;DHT22;38747;53.140;6.498;2022-08-18T01:55:32;18.50;99.90
52879;DHT22;38747;53.140;6.498;2022-08-18T01:57:58;18.50;99.90
52879;DHT22;38747;53.140;6.498;2022-08-18T02:00:26;18.50;99.90
52879;DHT22;38747;53.140;6.498;2022-08-18T02:02:52;18.50;99.90
52879;DHT22;38747;53.140;6.498;2022-08-18T02:05:19;18.50;99.90
52879;DHT22;38747;53.140;6.498;2022-08-18T02:07:46;18.60;99.90
52879;DHT22;38747;53.140;6.498;2022-08-18T02:10:12;18.50;99.90
52879;DHT22;38747;53.140;6.498;2022-08-18T02:12:38;18.60;99.90
52879;DHT22;38747;53.140;6.498;2022-08-18T02:15:05;18.60;99.90
52879;DHT22;38747;53.140;6.498;2022-08-18T02:17:40;18.60;99.90
52879;DHT22;38747;53.140;6.498;2022-08-18T02:20:08;18.60;99.90
52879;DHT22;38747;53.140;6.498;2022-08-18T02:22:35;18.60;99.90
52879;DHT22;38747;53.140;6.498;2022-08-18T02:25:01;18.50;99.90
52879;DHT22;38747;53.140;6.498;2022-08-18T02:27:27;18.50;99.90
52879;DHT22;38747;53.140;6.498;2022-08-18T02:29:52;18.50;99.90
52879;DHT22;38747;53.140;6.498;2022-08-18T02:32:18;18.50;99.90
52879;DHT22;38747;53.140;6.498;2022-08-18T02:34:44;18.50;99.90
52879;DHT22;38747;53.140;6.498;2022-08-18T02:37:09;18.50;99.90
52879;DHT22;38747;53.140;6.498;2022-08-18T02:39:36;18.50;99.90
52879;DHT22;38747;53.140;6.498;2022-08-18T02:42:06;18.50;99.90
52879;DHT22;38747;53.140;6.498;2022-08-18T02:44:32;18.50;99.90
52879;DHT22;38747;53.140;6.498;2022-08-18T02:46:58;18.40;99.90
52879;DHT22;38747;53.140;6.498;2022-08-18T02:49:24;18.50;99.90
52879;DHT22;38747;53.140;6.498;2022-08-18T02:51:52;18.50;99.90
52879;DHT22;38747;53.140;6.498;2022-08-18T02:54:20;18.50;99.90
52879;DHT22;38747;53.140;6.498;2022-08-18T02:56:48;18.50;99.90
52879;DHT22;38747;53.140;6.498;2022-08-18T02:59:18;18.50;99.90
52879;DHT22;38747;53.140;6.498;2022-08-18T03:01:47;18.50;99.90
52879;DHT22;38747;53.140;6.498;2022-08-18T03:04:16;18.60;99.90
52879;DHT22;38747;53.140;6.498;2022-08-18T03:06:42;18.60;99.90
52879;DHT22;38747;53.140;6.498;2022-08-18T03:09:09;18.60;99.90
52879;DHT22;38747;53.140;6.498;2022-08-18T03:11:36;18.50;99.90
52879;DHT22;38747;53.140;6.498;2022-08-18T03:14:03;18.60;99.90
52879;DHT22;38747;53.140;6.498;2022-08-18T03:16:30;18.60;99.90
52879;DHT22;38747;53.140;6.498;2022-08-18T03:18:58;18.50;99.90
52879;DHT22;38747;53.140;6.498;2022-08-18T03:21:25;18.60;99.90
52879;DHT22;38747;53.140;6.498;2022-08-18T03:26:28;18.60;99.90
52879;DHT22;38747;53.140;6.498;2022-08-18T03:28:55;18.60;99.90
52879;DHT22;38747;53.140;6.498;2022-08-18T03:31:23;18.60;99.90
52879;DHT22;38747;53.140;6.498;2022-08-18T03:33:50;18.60;99.90
52879;DHT22;38747;53.140;6.498;2022-08-18T03:36:22;18.60;99.90
52879;DHT22;38747;53.140;6.498;2022-08-18T03:38:49;18.60;99.90
52879;DHT22;38747;53.140;6.498;2022-08-18T03:41:17;18.60;99.90
52879;DHT22;38747;53.140;6.498;2022-08-18T03:43:43;18.50;99.90
52879;DHT22;38747;53.140;6.498;2022-08-18T03:46:09;18.50;99.90
52879;DHT22;38747;53.140;6.498;2022-08-18T03:48:36;18.60;99.90
52879;DHT22;38747;53.140;6.498;2022-08-18T03:51:17;18.50;99.90
52879;DHT22;38747;53.140;6.498;2022-08-18T03:53:44;18.50;99.90
52879;DHT22;38747;53.140;6.498;2022-08-18T03:56:12;18.60;99.90
52879;DHT22;38747;53.140;6.498;2022-08-18T03:58:43;18.60;99.90
52879;DHT22;38747;53.140;6.498;2022-08-18T04:01:11;18.60;99.90
52879;DHT22;38747;53.140;6.498;2022-08-18T04:03:38;18.60;99.90
52879;DHT22;38747;53.140;6.498;2022-08-18T04:06:03;18.60;99.90
52879;DHT22;38747;53.140;6.498;2022-08-18T04:08:29;18.60;99.90
52879;DHT22;38747;53.140;6.498;2022-08-18T04:10:54;18.60;99.90
52879;DHT22;38747;53.140;6.498;2022-08-18T04:13:20;18.60;99.90
52879;DHT22;38747;53.140;6.498;2022-08-18T04:15:46;18.60;99.90
52879;DHT22;38747;53.140;6.498;2022-08-18T04:18:12;18.60;99.90
52879;DHT22;38747;53.140;6.498;2022-08-18T04:20:37;18.60;99.90
52879;DHT22;38747;53.140;6.498;2022-08-18T04:23:04;18.60;99.90
52879;DHT22;38747;53.140;6.498;2022-08-18T04:25:30;18.60;99.90
52879;DHT22;38747;53.140;6.498;2022-08-18T04:27:57;18.60;99.90
52879;DHT22;38747;53.140;6.498;2022-08-18T04:30:26;18.60;99.90
52879;DHT22;38747;53.140;6.498;2022-08-18T04:32:53;18.60;99.90
52879;DHT22;38747;53.140;6.498;2022-08-18T04:35:19;18.60;99.90
52879;DHT22;38747;53.140;6.498;2022-08-18T04:37:46;18.60;99.90
52879;DHT22;38747;53.140;6.498;2022-08-18T04:40:12;18.60;99.90
52879;DHT22;38747;53.140;6.498;2022-08-18T04:42:38;18.60;99.90
52879;DHT22;38747;53.140;6.498;2022-08-18T04:45:04;18.50;99.90
52879;DHT22;38747;53.140;6.498;2022-08-18T04:47:31;18.60;99.90
52879;DHT22;38747;53.140;6.498;2022-08-18T04:49:56;18.60;99.90
52879;DHT22;38747;53.140;6.498;2022-08-18T04:52:22;18.50;99.90
52879;DHT22;38747;53.140;6.498;2022-08-18T04:55:06;18.60;99.90
52879;DHT22;38747;53.140;6.498;2022-08-18T04:57:32;18.60;99.90
52879;DHT22;38747;53.140;6.498;2022-08-18T04:59:58;18.60;99.90
52879;DHT22;38747;53.140;6.498;2022-08-18T05:02:23;18.60;99.90
52879;DHT22;38747;53.140;6.498;2022-08-18T05:04:49;18.60;99.90
52879;DHT22;38747;53.140;6.498;2022-08-18T05:07:16;18.60;99.90
52879;DHT22;38747;53.140;6.498;2022-08-18T05:09:43;18.60;99.90
52879;DHT22;38747;53.140;6.498;2022-08-18T05:12:10;18.60;99.90
52879;DHT22;38747;53.140;6.498;2022-08-18T05:14:38;18.60;99.90
52879;DHT22;38747;53.140;6.498;2022-08-18T05:17:04;18.60;99.90
52879;DHT22;38747;53.140;6.498;2022-08-18T05:19:30;18.60;99.90
52879;DHT22;38747;53.140;6.498;2022-08-18T05:21:57;18.70;99.90
52879;DHT22;38747;53.140;6.498;2022-08-18T05:24:25;18.70;99.90
52879;DHT22;38747;53.140;6.498;2022-08-18T05:26:52;18.70;99.90
52879;DHT22;38747;53.140;6.498;2022-08-18T05:29:19;18.80;99.90
52879;DHT22;38747;53.140;6.498;2022-08-18T05:31:49;18.80;99.90
52879;DHT22;38747;53.140;6.498;2022-08-18T05:34:16;18.80;99.90
52879;DHT22;38747;53.140;6.498;2022-08-18T05:41:54;18.90;99.90
52879;DHT22;38747;53.140;6.498;2022-08-18T05:44:28;19.00;99.90
52879;DHT22;38747;53.140;6.498;2022-08-18T05:47:22;18.90;99.90
52879;DHT22;38747;53.140;6.498;2022-08-18T05:49:49;19.00;99.90
52879;DHT22;38747;53.140;6.498;2022-08-18T05:54:49;19.10;99.90
52879;DHT22;38747;53.140;6.498;2022-08-18T05:57:41;19.10;99.90
52879;DHT22;38747;53.140;6.498;2022-08-18T06:00:09;19.10;99.90
52879;DHT22;38747;53.140;6.498;2022-08-18T06:05:27;19.10;99.90
52879;DHT22;38747;53.140;6.498;2022-08-18T06:08:03;19.20;99.90
52879;DHT22;38747;53.140;6.498;2022-08-18T06:10:31;19.30;99.90
52879;DHT22;38747;53.140;6.498;2022-08-18T06:12:57;19.30;99.90
52879;DHT22;38747;53.140;6.498;2022-08-18T06:19:07;19.50;99.90
52879;DHT22;38747;53.140;6.498;2022-08-18T06:27:04;19.30;99.90
52879;DHT22;38747;53.140;6.498;2022-08-18T06:38:41;19.30;99.90
52879;DHT22;38747;53.140;6.498;2022-08-18T06:43:57;19.20;99.90
52879;DHT22;38747;53.140;6.498;2022-08-18T06:46:44;19.20;99.90
52879;DHT22;38747;53.140;6.498;2022-08-18T06:49:20;19.20;99.90
52879;DHT22;38747;53.140;6.498;2022-08-18T06:51:47;19.20;99.90
52879;DHT22;38747;53.140;6.498;2022-08-18T06:56:50;19.20;99.90
52879;DHT22;38747;53.140;6.498;2022-08-18T06:59:29;19.20;99.90
52879;DHT22;38747;53.140;6.498;2022-08-18T07:05:03;19.20;99.90
52879;DHT22;38747;53.140;6.498;2022-08-18T07:07:37;19.10;99.90
52879;DHT22;38747;53.140;6.498;2022-08-18T07:12:38;19.00;99.90
52879;DHT22;38747;53.140;6.498;2022-08-18T07:15:04;19.00;99.90
52879;DHT22;38747;53.140;6.498;2022-08-18T07:17:34;19.00;99.90
52879;DHT22;38747;53.140;6.498;2022-08-18T07:22:55;18.90;99.90
52879;DHT22;38747;53.140;6.498;2022-08-18T07:25:34;18.80;99.90
52879;DHT22;38747;53.140;6.498;2022-08-18T07:28:02;18.70;99.90
52879;DHT22;38747;53.140;6.498;2022-08-18T07:30:32;18.70;99.90
52879;DHT22;38747;53.140;6.498;2022-08-18T07:35:27;18.60;99.90
52879;DHT22;38747;53.140;6.498;2022-08-18T07:40:40;18.70;99.90
52879;DHT22;38747;53.140;6.498;2022-08-18T07:45:45;18.80;99.90
52879;DHT22;38747;53.140;6.498;2022-08-18T07:48:23;18.80;99.90
52879;DHT22;38747;53.140;6.498;2022-08-18T07:50:59;18.90;99.90
52879;DHT22;38747;53.140;6.498;2022-08-18T07:57:04;19.10;99.90
52879;DHT22;38747;53.140;6.498;2022-08-18T08:05:32;19.30;99.90
52879;DHT22;38747;53.140;6.498;2022-08-18T08:08:04;19.30;99.90
52879;DHT22;38747;53.140;6.498;2022-08-18T08:10:44;19.30;99.90
52879;DHT22;38747;53.140;6.498;2022-08-18T08:18:56;19.30;99.90
52879;DHT22;38747;53.140;6.498;2022-08-18T08:21:29;19.30;99.90
52879;DHT22;38747;53.140;6.498;2022-08-18T08:24:33;19.40;99.90
52879;DHT22;38747;53.140;6.498;2022-08-18T08:30:06;19.60;99.90
52879;DHT22;38747;53.140;6.498;2022-08-18T08:35:15;19.90;99.90
52879;DHT22;38747;53.140;6.498;2022-08-18T08:37:43;20.00;99.90
52879;DHT22;38747;53.140;6.498;2022-08-18T08:40:24;20.00;99.90
52879;DHT22;38747;53.140;6.498;2022-08-18T08:43:16;20.00;99.90
52879;DHT22;38747;53.140;6.498;2022-08-18T08:45:46;20.00;99.90
52879;DHT22;38747;53.140;6.498;2022-08-18T08:48:22;19.90;99.90
52879;DHT22;38747;53.140;6.498;2022-08-18T08:53:28;20.00;99.90
52879;DHT22;38747;53.140;6.498;2022-08-18T08:56:01;20.00;99.90
52879;DHT22;38747;53.140;6.498;2022-08-18T08:58:54;20.10;99.90
52879;DHT22;38747;53.140;6.498;2022-08-18T09:01:29;20.10;99.90
52879;DHT22;38747;53.140;6.498;2022-08-18T09:04:06;20.10;99.90
52879;DHT22;38747;53.140;6.498;2022-08-18T09:14:45;20.10;99.90
52879;DHT22;38747;53.140;6.498;2022-08-18T09:20:34;20.20;99.90
52879;DHT22;38747;53.140;6.498;2022-08-18T09:23:11;20.30;99.90
52879;DHT22;38747;53.140;6.498;2022-08-18T09:28:17;20.30;99.90
52879;DHT22;38747;53.140;6.498;2022-08-18T09:38:54;20.70;99.90
52879;DHT22;38747;53.140;6.498;2022-08-18T09:41:56;20.80;99.90
52879;DHT22;38747;53.140;6.498;2022-08-18T09:49:52;21.40;99.90
52879;DHT22;38747;53.140;6.498;2022-08-18T09:54:59;21.40;99.90
52879;DHT22;38747;53.140;6.498;2022-08-18T09:57:28;21.50;99.90
52879;DHT22;38747;53.140;6.498;2022-08-18T09:59:57;21.70;99.90
52879;DHT22;38747;53.140;6.498;2022-08-18T10:07:39;21.40;99.90
52879;DHT22;38747;53.140;6.498;2022-08-18T10:13:03;21.30;99.90
52879;DHT22;38747;53.140;6.498;2022-08-18T10:37:12;21.10;99.90
52879;DHT22;38747;53.140;6.498;2022-08-18T10:42:17;21.20;99.90
52879;DHT22;38747;53.140;6.498;2022-08-18T10:44:45;21.30;99.90
52879;DHT22;38747;53.140;6.498;2022-08-18T10:47:23;21.40;99.90
52879;DHT22;38747;53.140;6.498;2022-08-18T10:49:51;21.50;99.90
52879;DHT22;38747;53.140;6.498;2022-08-18T11:01:08;21.90;99.90
52879;DHT22;38747;53.140;6.498;2022-08-18T11:06:23;22.00;99.90
52879;DHT22;38747;53.140;6.498;2022-08-18T11:08:54;22.10;99.90
52879;DHT22;38747;53.140;6.498;2022-08-18T11:11:24;22.20;99.90
52879;DHT22;38747;53.140;6.498;2022-08-18T11:20:14;22.40;99.90
52879;DHT22;38747;53.140;6.498;2022-08-18T11:22:59;22.40;99.90
52879;DHT22;38747;53.140;6.498;2022-08-18T11:27:53;22.90;99.90
52879;DHT22;38747;53.140;6.498;2022-08-18T11:30:19;23.00;99.90
52879;DHT22;38747;53.140;6.498;2022-08-18T11:32:45;23.00;99.90
52879;DHT22;38747;53.140;6.498;2022-08-18T11:35:15;22.70;99.90
52879;DHT22;38747;53.140;6.498;2022-08-18T11:38:03;22.40;99.90
52879;DHT22;38747;53.140;6.498;2022-08-18T11:43:09;22.20;99.90
52879;DHT22;38747;53.140;6.498;2022-08-18T11:45:52;22.20;99.90
52879;DHT22;38747;53.140;6.498;2022-08-18T11:59:28;22.60;99.90
52879;DHT22;38747;53.140;6.498;2022-08-18T12:01:57;22.80;99.90
52879;DHT22;38747;53.140;6.498;2022-08-18T12:04:40;22.80;99.90
52879;DHT22;38747;53.140;6.498;2022-08-18T12:07:12;22.80;99.90
52879;DHT22;38747;53.140;6.498;2022-08-18T12:12:26;22.80;99.90
52879;DHT22;38747;53.140;6.498;2022-08-18T12:17:28;22.60;99.90
52879;DHT22;38747;53.140;6.498;2022-08-18T12:19:54;22.60;99.90
52879;DHT22;38747;53.140;6.498;2022-08-18T12:22:26;22.50;99.90
52879;DHT22;38747;53.140;6.498;2022-08-18T12:24:53;22.50;99.90
52879;DHT22;38747;53.140;6.498;2022-08-18T12:27:21;22.50;99.90
52879;DHT22;38747;53.140;6.498;2022-08-18T12:29:49;22.70;99.90
52879;DHT22;38747;53.140;6.498;2022-08-18T12:32:16;23.10;99.90
52879;DHT22;38747;53.140;6.498;2022-08-18T12:34:42;23.40;99.90
52879;DHT22;38747;53.140;6.498;2022-08-18T12:37:08;23.60;99.90
52879;DHT22;38747;53.140;6.498;2022-08-18T12:39:35;23.70;99.90
52879;DHT22;38747;53.140;6.498;2022-08-18T12:42:01;23.70;99.90
52879;DHT22;38747;53.140;6.498;2022-08-18T12:44:26;23.70;99.90
52879;DHT22;38747;53.140;6.498;2022-08-18T12:46:52;23.50;99.90
52879;DHT22;38747;53.140;6.498;2022-08-18T12:49:21;23.20;99.90
52879;DHT22;38747;53.140;6.498;2022-08-18T12:51:49;22.90;99.90
52879;DHT22;38747;53.140;6.498;2022-08-18T12:54:15;23.00;99.90
52879;DHT22;38747;53.140;6.498;2022-08-18T12:56:49;23.10;99.90
52879;DHT22;38747;53.140;6.498;2022-08-18T12:59:15;23.30;99.90
52879;DHT22;38747;53.140;6.498;2022-08-18T13:01:41;23.40;99.90
52879;DHT22;38747;53.140;6.498;2022-08-18T13:04:07;23.60;99.90
52879;DHT22;38747;53.140;6.498;2022-08-18T13:06:36;23.60;99.90
52879;DHT22;38747;53.140;6.498;2022-08-18T13:09:03;23.70;99.90
52879;DHT22;38747;53.140;6.498;2022-08-18T13:11:29;23.80;99.90
52879;DHT22;38747;53.140;6.498;2022-08-18T13:13:55;23.60;99.90
52879;DHT22;38747;53.140;6.498;2022-08-18T13:16:21;23.50;99.90
52879;DHT22;38747;53.140;6.498;2022-08-18T13:18:46;23.40;99.90
52879;DHT22;38747;53.140;6.498;2022-08-18T13:21:14;23.30;99.90
52879;DHT22;38747;53.140;6.498;2022-08-18T13:23:40;23.20;99.90
52879;DHT22;38747;53.140;6.498;2022-08-18T13:26:08;23.30;99.90
52879;DHT22;38747;53.140;6.498;2022-08-18T13:28:35;23.50;99.90
52879;DHT22;38747;53.140;6.498;2022-08-18T13:31:01;23.80;99.90
52879;DHT22;38747;53.140;6.498;2022-08-18T13:33:27;24.00;99.90
52879;DHT22;38747;53.140;6.498;2022-08-18T13:35:53;24.20;99.90
52879;DHT22;38747;53.140;6.498;2022-08-18T13:38:19;24.20;99.90
52879;DHT22;38747;53.140;6.498;2022-08-18T13:40:48;24.20;99.90
52879;DHT22;38747;53.140;6.498;2022-08-18T13:43:16;24.20;99.90
52879;DHT22;38747;53.140;6.498;2022-08-18T13:45:41;23.90;99.90
52879;DHT22;38747;53.140;6.498;2022-08-18T13:48:09;23.70;99.90
52879;DHT22;38747;53.140;6.498;2022-08-18T13:50:35;23.60;99.90
52879;DHT22;38747;53.140;6.498;2022-08-18T13:53:05;23.50;99.90
52879;DHT22;38747;53.140;6.498;2022-08-18T13:55:30;23.50;99.90
52879;DHT22;38747;53.140;6.498;2022-08-18T13:57:56;23.70;99.90
52879;DHT22;38747;53.140;6.498;2022-08-18T14:00:23;23.70;99.90
52879;DHT22;38747;53.140;6.498;2022-08-18T14:02:50;23.60;99.90
52879;DHT22;38747;53.140;6.498;2022-08-18T14:05:19;23.50;99.90
52879;DHT22;38747;53.140;6.498;2022-08-18T14:07:45;23.70;99.90
52879;DHT22;38747;53.140;6.498;2022-08-18T14:10:11;23.80;99.90
52879;DHT22;38747;53.140;6.498;2022-08-18T14:12:38;23.80;99.90
52879;DHT22;38747;53.140;6.498;2022-08-18T14:15:08;23.90;99.90
52879;DHT22;38747;53.140;6.498;2022-08-18T14:17:34;23.80;99.90
52879;DHT22;38747;53.140;6.498;2022-08-18T14:20:07;23.90;99.90
52879;DHT22;38747;53.140;6.498;2022-08-18T14:22:54;24.00;99.90
52879;DHT22;38747;53.140;6.498;2022-08-18T14:25:39;23.90;99.90
52879;DHT22;38747;53.140;6.498;2022-08-18T14:28:25;23.80;99.90
52879;DHT22;38747;53.140;6.498;2022-08-18T14:30:51;23.60;99.90
52879;DHT22;38747;53.140;6.498;2022-08-18T14:33:19;23.60;99.90
52879;DHT22;38747;53.140;6.498;2022-08-18T14:35:46;23.50;99.90
52879;DHT22;38747;53.140;6.498;2022-08-18T14:38:12;23.30;99.90
52879;DHT22;38747;53.140;6.498;2022-08-18T14:40:40;23.30;99.90
52879;DHT22;38747;53.140;6.498;2022-08-18T14:43:07;23.30;99.90
52879;DHT22;38747;53.140;6.498;2022-08-18T14:45:33;23.20;99.90
52879;DHT22;38747;53.140;6.498;2022-08-18T14:47:59;23.20;99.90
52879;DHT22;38747;53.140;6.498;2022-08-18T14:50:25;23.10;99.90
52879;DHT22;38747;53.140;6.498;2022-08-18T14:52:51;23.10;99.90
52879;DHT22;38747;53.140;6.498;2022-08-18T14:55:17;23.20;99.90
52879;DHT22;38747;53.140;6.498;2022-08-18T14:57:43;23.20;99.90
52879;DHT22;38747;53.140;6.498;2022-08-18T15:00:12;23.30;99.90
52879;DHT22;38747;53.140;6.498;2022-08-18T15:02:41;23.40;99.90
52879;DHT22;38747;53.140;6.498;2022-08-18T15:05:09;23.50;99.90
52879;DHT22;38747;53.140;6.498;2022-08-18T15:07:36;23.50;99.90
52879;DHT22;38747;53.140;6.498;2022-08-18T15:10:06;23.40;99.90
52879;DHT22;38747;53.140;6.498;2022-08-18T15:12:33;23.40;99.90
52879;DHT22;38747;53.140;6.498;2022-08-18T15:14:59;23.40;99.90
52879;DHT22;38747;53.140;6.498;2022-08-18T15:17:25;23.40;99.90
52879;DHT22;38747;53.140;6.498;2022-08-18T15:19:52;23.20;99.90
52879;DHT22;38747;53.140;6.498;2022-08-18T15:22:18;23.10;99.90
52879;DHT22;38747;53.140;6.498;2022-08-18T15:25:05;23.00;99.90
52879;DHT22;38747;53.140;6.498;2022-08-18T15:27:50;23.00;99.90
52879;DHT22;38747;53.140;6.498;2022-08-18T15:30:16;22.90;99.90
52879;DHT22;38747;53.140;6.498;2022-08-18T15:32:42;22.90;99.90
52879;DHT22;38747;53.140;6.498;2022-08-18T15:35:10;22.90;99.90
52879;DHT22;38747;53.140;6.498;2022-08-18T15:37:37;22.90;99.90
52879;DHT22;38747;53.140;6.498;2022-08-18T15:42:47;22.90;99.90
52879;DHT22;38747;53.140;6.498;2022-08-18T15:45:21;22.80;99.90
52879;DHT22;38747;53.140;6.498;2022-08-18T15:47:50;22.80;99.90
52879;DHT22;38747;53.140;6.498;2022-08-18T15:50:16;22.80;99.90
52879;DHT22;38747;53.140;6.498;2022-08-18T15:52:49;22.80;99.90
52879;DHT22;38747;53.140;6.498;2022-08-18T15:55:17;22.80;99.90
52879;DHT22;38747;53.140;6.498;2022-08-18T15:57:43;22.70;99.90
52879;DHT22;38747;53.140;6.498;2022-08-18T16:00:09;22.70;99.90
52879;DHT22;38747;53.140;6.498;2022-08-18T16:02:36;22.60;99.90
52879;DHT22;38747;53.140;6.498;2022-08-18T16:05:04;22.50;99.90
52879;DHT22;38747;53.140;6.498;2022-08-18T16:07:30;22.40;99.90
52879;DHT22;38747;53.140;6.498;2022-08-18T16:09:55;22.40;99.90
52879;DHT22;38747;53.140;6.498;2022-08-18T16:12:21;22.40;99.90
52879;DHT22;38747;53.140;6.498;2022-08-18T16:14:47;22.40;99.90
52879;DHT22;38747;53.140;6.498;2022-08-18T16:17:13;22.30;99.90
52879;DHT22;38747;53.140;6.498;2022-08-18T16:19:39;22.30;99.90
52879;DHT22;38747;53.140;6.498;2022-08-18T16:22:04;22.30;99.90
52879;DHT22;38747;53.140;6.498;2022-08-18T16:24:30;22.40;99.90
52879;DHT22;38747;53.140;6.498;2022-08-18T16:26:56;22.40;99.90
52879;DHT22;38747;53.140;6.498;2022-08-18T16:29:22;22.30;99.90
52879;DHT22;38747;53.140;6.498;2022-08-18T16:31:47;22.30;99.90
52879;DHT22;38747;53.140;6.498;2022-08-18T16:34:15;22.30;99.90
52879;DHT22;38747;53.140;6.498;2022-08-18T16:36:41;22.20;99.90
52879;DHT22;38747;53.140;6.498;2022-08-18T16:39:06;22.20;99.90
52879;DHT22;38747;53.140;6.498;2022-08-18T16:41:32;22.20;99.90
52879;DHT22;38747;53.140;6.498;2022-08-18T16:43:58;22.20;99.90
52879;DHT22;38747;53.140;6.498;2022-08-18T16:46:26;22.20;99.90
52879;DHT22;38747;53.140;6.498;2022-08-18T16:48:54;22.10;99.90
52879;DHT22;38747;53.140;6.498;2022-08-18T16:51:22;22.10;99.90
52879;DHT22;38747;53.140;6.498;2022-08-18T16:53:49;22.00;99.90
52879;DHT22;38747;53.140;6.498;2022-08-18T16:56:25;21.90;99.90
52879;DHT22;38747;53.140;6.498;2022-08-18T16:58:51;21.90;99.90
52879;DHT22;38747;53.140;6.498;2022-08-18T17:01:36;22.00;99.90
52879;DHT22;38747;53.140;6.498;2022-08-18T17:04:23;21.90;99.90
52879;DHT22;38747;53.140;6.498;2022-08-18T17:06:49;21.90;99.90
52879;DHT22;38747;53.140;6.498;2022-08-18T17:09:16;21.80;99.90
52879;DHT22;38747;53.140;6.498;2022-08-18T17:11:42;21.70;99.90
52879;DHT22;38747;53.140;6.498;2022-08-18T17:14:08;21.70;99.90
52879;DHT22;38747;53.140;6.498;2022-08-18T17:16:36;21.70;99.90
52879;DHT22;38747;53.140;6.498;2022-08-18T17:19:03;21.60;99.90
52879;DHT22;38747;53.140;6.498;2022-08-18T17:21:30;21.50;99.90
52879;DHT22;38747;53.140;6.498;2022-08-18T17:23:57;21.50;99.90
52879;DHT22;38747;53.140;6.498;2022-08-18T17:29:17;21.40;99.90
52879;DHT22;38747;53.140;6.498;2022-08-18T17:31:50;21.40;99.90
52879;DHT22;38747;53.140;6.498;2022-08-18T17:34:20;21.30;99.90
52879;DHT22;38747;53.140;6.498;2022-08-18T17:36:55;21.30;99.90
52879;DHT22;38747;53.140;6.498;2022-08-18T17:39:35;21.20;99.90
52879;DHT22;38747;53.140;6.498;2022-08-18T17:42:02;21.10;99.90
52879;DHT22;38747;53.140;6.498;2022-08-18T17:44:47;21.00;99.90
52879;DHT22;38747;53.140;6.498;2022-08-18T17:47:17;20.90;99.90
52879;DHT22;38747;53.140;6.498;2022-08-18T17:49:44;20.80;99.90
52879;DHT22;38747;53.140;6.498;2022-08-18T17:52:38;20.70;99.90
52879;DHT22;38747;53.140;6.498;2022-08-18T17:55:13;20.60;99.90
52879;DHT22;38747;53.140;6.498;2022-08-18T17:57:48;20.60;99.90
52879;DHT22;38747;53.140;6.498;2022-08-18T18:00:20;20.50;99.90
52879;DHT22;38747;53.140;6.498;2022-08-18T18:02:46;20.40;99.90
52879;DHT22;38747;53.140;6.498;2022-08-18T18:05:13;20.40;99.90
52879;DHT22;38747;53.140;6.498;2022-08-18T18:15:56;20.30;99.90
52879;DHT22;38747;53.140;6.498;2022-08-18T18:18:37;20.20;99.90
52879;DHT22;38747;53.140;6.498;2022-08-18T18:21:18;20.20;99.90
52879;DHT22;38747;53.140;6.498;2022-08-18T18:23:52;20.10;99.90
52879;DHT22;38747;53.140;6.498;2022-08-18T18:26:21;20.10;99.90
52879;DHT22;38747;53.140;6.498;2022-08-18T18:28:50;20.10;99.90
52879;DHT22;38747;53.140;6.498;2022-08-18T18:31:23;20.10;99.90
52879;DHT22;38747;53.140;6.498;2022-08-18T18:34:04;20.00;99.90
52879;DHT22;38747;53.140;6.498;2022-08-18T18:36:43;20.00;99.90
52879;DHT22;38747;53.140;6.498;2022-08-18T18:41:39;19.80;99.90
52879;DHT22;38747;53.140;6.498;2022-08-18T18:44:11;19.80;99.90
52879;DHT22;38747;53.140;6.498;2022-08-18T18:47:17;19.80;99.90
52879;DHT22;38747;53.140;6.498;2022-08-18T18:49:57;19.70;99.90
52879;DHT22;38747;53.140;6.498;2022-08-18T18:52:45;19.60;99.90
52879;DHT22;38747;53.140;6.498;2022-08-18T18:55:23;19.60;99.90
52879;DHT22;38747;53.140;6.498;2022-08-18T19:05:45;19.30;99.90
52879;DHT22;38747;53.140;6.498;2022-08-18T19:13:36;19.20;99.90
52879;DHT22;38747;53.140;6.498;2022-08-18T19:16:23;19.20;99.90